Wilson Lahn — 8PUO — position and weather

sailwx.info

Track history (hours):
 
Tides and Currents Weather Stations Pressure Air Temp Water Temp Dewpoint Dewpoint Depression Visibility Wind Speed Wind Dir Waves Ship Positions

Wilson Lahn

Last reported at 2014-Nov-22 12:21 UTC. Time now 2014-Nov-24 16:10 UTC.
Position N 66°25' E 011°43'.

Length 83 m; draft 4.7 m.

Type: Cargo ship. MMSI: 314259000.

Date/timePositionNaut miles runAvg speedWind from/ knotsBaromVisibWave heightAir tempDewpointWater temp
2014-Nov-22 12:21N 66°25' E 011°43'7 8.3
2014-Nov-22 11:32N 66°31' E 011°50'11 8.8
2014-Nov-22 10:18N 66°40' E 012°05'8110.4
2014-Nov-22 02:30N 67°45' E 014°11'  
2014-Nov-19 16:32N 67°30' E 014°21'9 9.5
2014-Nov-19 15:33N 67°20' E 014°21'1211.9
2014-Nov-19 14:34N 67°11' E 014°04'1511.8
2014-Nov-19 13:19N 66°59' E 013°41'11 0.7
2014-Nov-18 21:27N 67°07' E 013°60'1011.1
2014-Nov-18 20:34N 67°16' E 014°12'1111.2
2014-Nov-18 19:34N 67°25' E 014°28'1410.8
2014-Nov-18 18:14N 67°35' E 014°55'15 9.2
2014-Nov-18 16:34N 67°27' E 015°30'4 3.7
2014-Nov-18 15:30N 67°24' E 015°33'0 0.0
2014-Nov-18 14:30N 67°24' E 015°33'0 0.0
2014-Nov-18 13:27N 67°24' E 015°33'0 0.0
2014-Nov-18 12:33N 67°24' E 015°33'0 0.0
2014-Nov-18 11:33N 67°24' E 015°33'0 0.0
2014-Nov-18 10:33N 67°24' E 015°33'0 0.0
2014-Nov-18 09:33N 67°24' E 015°33'0 0.0
2014-Nov-18 08:33N 67°24' E 015°33'0 0.0
2014-Nov-18 07:33N 67°24' E 015°33'0 0.0
2014-Nov-18 06:24N 67°24' E 015°33'0 0.0
2014-Nov-18 05:24N 67°24' E 015°33'0 0.0
2014-Nov-18 04:27N 67°24' E 015°33'0 0.0
2014-Nov-18 03:27N 67°24' E 015°33'0 0.0
2014-Nov-18 02:27N 67°24' E 015°33'0 0.0
2014-Nov-18 01:30N 67°24' E 015°33'0 0.0
2014-Nov-18 00:30N 67°24' E 015°33'0 0.0
2014-Nov-17 23:30N 67°24' E 015°33'0 0.0
2014-Nov-17 22:33N 67°24' E 015°33'0 0.0
2014-Nov-17 21:33N 67°24' E 015°33'0 0.0
2014-Nov-17 20:33N 67°24' E 015°33'1 0.9
2014-Nov-17 19:31N 67°23' E 015°34'0 0.1
2014-Nov-17 18:31N 67°23' E 015°34'0 0.0
2014-Nov-17 17:31N 67°23' E 015°34'0 0.0
2014-Nov-17 16:31N 67°23' E 015°34'0 0.0
2014-Nov-17 15:31N 67°23' E 015°34'0 0.0
2014-Nov-17 14:31N 67°23' E 015°34'0 0.0
2014-Nov-17 13:22N 67°23' E 015°34'0 0.0
2014-Nov-17 12:25N 67°23' E 015°34'0 0.0
2014-Nov-17 11:25N 67°23' E 015°34'0 0.0
2014-Nov-17 10:25N 67°23' E 015°34'0 0.0
2014-Nov-17 09:28N 67°23' E 015°34'0 0.0
2014-Nov-17 08:28N 67°23' E 015°34'0 0.0
2014-Nov-17 07:28N 67°23' E 015°34'0 0.0
2014-Nov-17 06:31N 67°23' E 015°34'0 0.0
2014-Nov-17 05:31N 67°23' E 015°34'0 0.0
2014-Nov-17 04:31N 67°23' E 015°34'0 0.0
2014-Nov-17 03:28N 67°23' E 015°34'0 0.0
2014-Nov-17 02:31N 67°23' E 015°34'0 0.0
2014-Nov-17 01:22N 67°23' E 015°34'0 0.0
2014-Nov-17 00:22N 67°23' E 015°34'0 0.0
2014-Nov-16 23:22N 67°23' E 015°34'0 0.0
2014-Nov-16 22:31N 67°23' E 015°34'0 0.0
2014-Nov-16 21:25N 67°23' E 015°34'0 0.0
2014-Nov-16 20:31N 67°23' E 015°34'0 0.0
2014-Nov-16 19:22N 67°23' E 015°34'0 0.0
2014-Nov-16 18:25N 67°23' E 015°34'0 0.0
2014-Nov-16 17:25N 67°23' E 015°34'0 0.0
2014-Nov-16 16:31N 67°23' E 015°34'0 0.0
2014-Nov-16 15:31N 67°23' E 015°34'0 0.0
2014-Nov-16 14:31N 67°23' E 015°34'0 0.0
2014-Nov-16 13:31N 67°23' E 015°34'0 0.0
2014-Nov-16 12:31N 67°23' E 015°34'0 0.0
2014-Nov-16 11:22N 67°23' E 015°34'0 0.0
2014-Nov-16 10:31N 67°23' E 015°34'0 0.0
2014-Nov-16 09:22N 67°23' E 015°34'0 0.0
2014-Nov-16 08:22N 67°23' E 015°34'0 0.0
2014-Nov-16 07:25N 67°23' E 015°34'0 0.0
2014-Nov-16 06:22N 67°23' E 015°34'0 0.0
2014-Nov-16 05:28N 67°23' E 015°34'0 0.0
2014-Nov-16 04:28N 67°23' E 015°34'0 0.0
2014-Nov-16 03:31N 67°23' E 015°34'0 0.0
2014-Nov-16 02:16N 67°23' E 015°34'0 0.0
2014-Nov-16 01:28N 67°23' E 015°34'0 0.0
2014-Nov-16 00:31N 67°23' E 015°34'0 0.0
2014-Nov-15 23:31N 67°23' E 015°34'0 0.0
2014-Nov-15 22:16N 67°23' E 015°34'0 0.0
2014-Nov-15 21:31N 67°23' E 015°34'0 0.0
2014-Nov-15 20:22N 67°23' E 015°34'0 0.0
2014-Nov-15 19:22N 67°23' E 015°34'0 0.0
2014-Nov-15 18:25N 67°23' E 015°34'0 0.0
2014-Nov-15 17:22N 67°23' E 015°34'0 0.0
2014-Nov-15 16:25N 67°23' E 015°34'0 0.0
2014-Nov-15 15:28N 67°23' E 015°34'0 0.0
2014-Nov-15 14:28N 67°23' E 015°34'0 0.0
2014-Nov-15 13:28N 67°23' E 015°34'0 0.0
2014-Nov-15 12:31N 67°23' E 015°34'0 0.0
2014-Nov-15 11:31N 67°23' E 015°34'0 0.0
2014-Nov-15 10:31N 67°23' E 015°34'0 0.0
2014-Nov-15 09:19N 67°23' E 015°34'0 0.0
2014-Nov-15 01:28N 67°23' E 015°34'0 0.0
2014-Nov-15 00:25N 67°23' E 015°34'0 0.0
2014-Nov-14 23:31N 67°23' E 015°34'0 0.0
2014-Nov-14 22:31N 67°23' E 015°34'0 0.0
2014-Nov-14 21:31N 67°23' E 015°34'0 0.1
2014-Nov-14 20:28N 67°23' E 015°34'0 0.0
2014-Nov-14 19:31N 67°23' E 015°34'0 0.0
2014-Nov-14 18:22N 67°23' E 015°34'0 0.0
2014-Nov-14 17:31N 67°23' E 015°34'0 0.0
2014-Nov-14 16:22N 67°23' E 015°34'0 0.0
2014-Nov-14 15:25N 67°23' E 015°34'0 0.0
2014-Nov-14 14:25N 67°23' E 015°34'0 0.0
2014-Nov-14 12:07N 67°23' E 015°34'0 0.0
2014-Nov-14 11:31N 67°23' E 015°34'15 1.2
2014-Nov-13 22:33N 67°35' E 015°09'12 8.8
2014-Nov-13 21:14N 67°31' E 014°39'6 9.6
2014-Nov-13 20:33N 67°30' E 014°23'163 5.8
2014-Nov-12 16:34N 69°39' E 018°58'2 1.0
2014-Nov-12 14:15N 69°41' E 018°60'0 0.0
2014-Nov-12 13:33N 69°41' E 018°60'  
Track history (hours):
 
Tides and Currents Weather Stations Pressure Air Temp Water Temp Dewpoint Dewpoint Depression Visibility Wind Speed Wind Dir Waves Ship Positions

Wilson Lahn

Last reported at 2014-Nov-22 12:21 UTC. Time now 2014-Nov-24 16:10 UTC.
Position N 66°25' E 011°43'.

Length 83 m; draft 4.7 m.

Type: Cargo ship. MMSI: 314259000.

Date/timePositionNaut miles runAvg speedWind from/ knotsBaromVisibWave heightAir tempDewpointWater temp
2014-Nov-22 12:21N 66°25' E 011°43'7 8.3
2014-Nov-22 11:32N 66°31' E 011°50'11 8.8
2014-Nov-22 10:18N 66°40' E 012°05'8110.4
2014-Nov-22 02:30N 67°45' E 014°11'  
2014-Nov-19 16:32N 67°30' E 014°21'9 9.5
2014-Nov-19 15:33N 67°20' E 014°21'1211.9
2014-Nov-19 14:34N 67°11' E 014°04'1511.8
2014-Nov-19 13:19N 66°59' E 013°41'11 0.7
2014-Nov-18 21:27N 67°07' E 013°60'1011.1
2014-Nov-18 20:34N 67°16' E 014°12'1111.2
2014-Nov-18 19:34N 67°25' E 014°28'1410.8
2014-Nov-18 18:14N 67°35' E 014°55'15 9.2
2014-Nov-18 16:34N 67°27' E 015°30'4 3.7
2014-Nov-18 15:30N 67°24' E 015°33'0 0.0
2014-Nov-18 14:30N 67°24' E 015°33'0 0.0
2014-Nov-18 13:27N 67°24' E 015°33'0 0.0
2014-Nov-18 12:33N 67°24' E 015°33'0 0.0
2014-Nov-18 11:33N 67°24' E 015°33'0 0.0
2014-Nov-18 10:33N 67°24' E 015°33'0 0.0
2014-Nov-18 09:33N 67°24' E 015°33'0 0.0
2014-Nov-18 08:33N 67°24' E 015°33'0 0.0
2014-Nov-18 07:33N 67°24' E 015°33'0 0.0
2014-Nov-18 06:24N 67°24' E 015°33'0 0.0
2014-Nov-18 05:24N 67°24' E 015°33'0 0.0
2014-Nov-18 04:27N 67°24' E 015°33'0 0.0
2014-Nov-18 03:27N 67°24' E 015°33'0 0.0
2014-Nov-18 02:27N 67°24' E 015°33'0 0.0
2014-Nov-18 01:30N 67°24' E 015°33'0 0.0
2014-Nov-18 00:30N 67°24' E 015°33'0 0.0
2014-Nov-17 23:30N 67°24' E 015°33'0 0.0
2014-Nov-17 22:33N 67°24' E 015°33'0 0.0
2014-Nov-17 21:33N 67°24' E 015°33'0 0.0
2014-Nov-17 20:33N 67°24' E 015°33'1 0.9
2014-Nov-17 19:31N 67°23' E 015°34'0 0.1
2014-Nov-17 18:31N 67°23' E 015°34'0 0.0
2014-Nov-17 17:31N 67°23' E 015°34'0 0.0
2014-Nov-17 16:31N 67°23' E 015°34'0 0.0
2014-Nov-17 15:31N 67°23' E 015°34'0 0.0
2014-Nov-17 14:31N 67°23' E 015°34'0 0.0
2014-Nov-17 13:22N 67°23' E 015°34'0 0.0
2014-Nov-17 12:25N 67°23' E 015°34'0 0.0
2014-Nov-17 11:25N 67°23' E 015°34'0 0.0
2014-Nov-17 10:25N 67°23' E 015°34'0 0.0
2014-Nov-17 09:28N 67°23' E 015°34'0 0.0
2014-Nov-17 08:28N 67°23' E 015°34'0 0.0
2014-Nov-17 07:28N 67°23' E 015°34'0 0.0
2014-Nov-17 06:31N 67°23' E 015°34'0 0.0
2014-Nov-17 05:31N 67°23' E 015°34'0 0.0
2014-Nov-17 04:31N 67°23' E 015°34'0 0.0
2014-Nov-17 03:28N 67°23' E 015°34'0 0.0
2014-Nov-17 02:31N 67°23' E 015°34'0 0.0
2014-Nov-17 01:22N 67°23' E 015°34'0 0.0
2014-Nov-17 00:22N 67°23' E 015°34'0 0.0
2014-Nov-16 23:22N 67°23' E 015°34'0 0.0
2014-Nov-16 22:31N 67°23' E 015°34'0 0.0
2014-Nov-16 21:25N 67°23' E 015°34'0 0.0
2014-Nov-16 20:31N 67°23' E 015°34'0 0.0
2014-Nov-16 19:22N 67°23' E 015°34'0 0.0
2014-Nov-16 18:25N 67°23' E 015°34'0 0.0
2014-Nov-16 17:25N 67°23' E 015°34'0 0.0
2014-Nov-16 16:31N 67°23' E 015°34'0 0.0
2014-Nov-16 15:31N 67°23' E 015°34'0 0.0
2014-Nov-16 14:31N 67°23' E 015°34'0 0.0
2014-Nov-16 13:31N 67°23' E 015°34'0 0.0
2014-Nov-16 12:31N 67°23' E 015°34'0 0.0
2014-Nov-16 11:22N 67°23' E 015°34'0 0.0
2014-Nov-16 10:31N 67°23' E 015°34'0 0.0
2014-Nov-16 09:22N 67°23' E 015°34'0 0.0
2014-Nov-16 08:22N 67°23' E 015°34'0 0.0
2014-Nov-16 07:25N 67°23' E 015°34'0 0.0
2014-Nov-16 06:22N 67°23' E 015°34'0 0.0
2014-Nov-16 05:28N 67°23' E 015°34'0 0.0
2014-Nov-16 04:28N 67°23' E 015°34'0 0.0
2014-Nov-16 03:31N 67°23' E 015°34'0 0.0
2014-Nov-16 02:16N 67°23' E 015°34'0 0.0
2014-Nov-16 01:28N 67°23' E 015°34'0 0.0
2014-Nov-16 00:31N 67°23' E 015°34'0 0.0
2014-Nov-15 23:31N 67°23' E 015°34'0 0.0
2014-Nov-15 22:16N 67°23' E 015°34'0 0.0
2014-Nov-15 21:31N 67°23' E 015°34'0 0.0
2014-Nov-15 20:22N 67°23' E 015°34'0 0.0
2014-Nov-15 19:22N 67°23' E 015°34'0 0.0
2014-Nov-15 18:25N 67°23' E 015°34'0 0.0
2014-Nov-15 17:22N 67°23' E 015°34'0 0.0
2014-Nov-15 16:25N 67°23' E 015°34'0 0.0
2014-Nov-15 15:28N 67°23' E 015°34'0 0.0
2014-Nov-15 14:28N 67°23' E 015°34'0 0.0
2014-Nov-15 13:28N 67°23' E 015°34'0 0.0
2014-Nov-15 12:31N 67°23' E 015°34'0 0.0
2014-Nov-15 11:31N 67°23' E 015°34'0 0.0
2014-Nov-15 10:31N 67°23' E 015°34'0 0.0
2014-Nov-15 09:19N 67°23' E 015°34'0 0.0
2014-Nov-15 01:28N 67°23' E 015°34'0 0.0
2014-Nov-15 00:25N 67°23' E 015°34'0 0.0
2014-Nov-14 23:31N 67°23' E 015°34'0 0.0
2014-Nov-14 22:31N 67°23' E 015°34'0 0.0
2014-Nov-14 21:31N 67°23' E 015°34'0 0.1
2014-Nov-14 20:28N 67°23' E 015°34'0 0.0
2014-Nov-14 19:31N 67°23' E 015°34'0 0.0
2014-Nov-14 18:22N 67°23' E 015°34'0 0.0
2014-Nov-14 17:31N 67°23' E 015°34'0 0.0
2014-Nov-14 16:22N 67°23' E 015°34'0 0.0
2014-Nov-14 15:25N 67°23' E 015°34'0 0.0
2014-Nov-14 14:25N 67°23' E 015°34'0 0.0
2014-Nov-14 12:07N 67°23' E 015°34'0 0.0
2014-Nov-14 11:31N 67°23' E 015°34'15 1.2
2014-Nov-13 22:33N 67°35' E 015°09'12 8.8
2014-Nov-13 21:14N 67°31' E 014°39'6 9.6
2014-Nov-13 20:33N 67°30' E 014°23'163 5.8
2014-Nov-12 16:34N 69°39' E 018°58'2 1.0
2014-Nov-12 14:15N 69°41' E 018°60'0 0.0
2014-Nov-12 13:33N 69°41' E 018°60'  

Dump ship's entire track history